createdAt,value
2023-12-30T00:02:22.759Z,1.40
2023-12-30T00:04:49.396Z,1.38
2023-12-30T00:07:16.046Z,1.45
2023-12-30T00:09:42.725Z,0.93
2023-12-30T00:12:10.329Z,1.70
2023-12-30T00:14:36.898Z,1.40
2023-12-30T00:17:03.977Z,2.17
2023-12-30T00:19:30.691Z,1.25
2023-12-30T00:21:57.400Z,1.42
2023-12-30T00:24:24.030Z,1.33
2023-12-30T00:26:51.352Z,1.90
2023-12-30T00:29:17.962Z,1.65
2023-12-30T00:31:44.564Z,1.30
2023-12-30T00:34:11.428Z,1.42
2023-12-30T00:36:43.127Z,1.58
2023-12-30T00:39:09.677Z,1.33
2023-12-30T00:41:36.196Z,1.17
2023-12-30T00:44:02.867Z,1.65
2023-12-30T00:46:29.515Z,1.45
2023-12-30T00:48:57.763Z,1.25
2023-12-30T00:51:25.205Z,1.45
2023-12-30T00:53:51.925Z,2.67
2023-12-30T00:56:18.551Z,1.50
2023-12-30T00:58:45.235Z,1.23
2023-12-30T01:01:12.155Z,1.40
2023-12-30T01:03:41.449Z,1.73
2023-12-30T01:06:08.341Z,1.38
2023-12-30T01:08:34.984Z,1.13
2023-12-30T01:11:01.631Z,0.95
2023-12-30T01:13:28.260Z,1.48
2023-12-30T01:15:54.951Z,1.40
2023-12-30T01:18:21.763Z,1.95
2023-12-30T01:20:48.494Z,1.40
2023-12-30T01:23:15.616Z,1.65
2023-12-30T01:25:43.546Z,1.63
2023-12-30T01:28:10.475Z,1.25
2023-12-30T01:30:41.302Z,1.20
2023-12-30T01:33:08.326Z,1.35
2023-12-30T01:35:35.707Z,1.38
2023-12-30T01:38:04.150Z,2.05
2023-12-30T01:40:31.960Z,1.45
2023-12-30T01:42:58.735Z,1.23
2023-12-30T01:45:25.362Z,1.17
2023-12-30T01:47:52.474Z,1.52
2023-12-30T01:50:19.843Z,1.00
2023-12-30T01:52:48.352Z,1.20
2023-12-30T01:55:16.461Z,1.42
2023-12-30T01:57:45.753Z,1.63
2023-12-30T02:00:21.224Z,2.28
2023-12-30T02:02:50.090Z,1.02
2023-12-30T02:05:17.489Z,1.40
2023-12-30T02:07:46.590Z,1.63
2023-12-30T02:10:13.796Z,1.10
2023-12-30T02:12:40.884Z,1.42
2023-12-30T02:15:22.953Z,1.40
2023-12-30T02:17:53.094Z,1.30
2023-12-30T02:20:19.771Z,1.58
2023-12-30T02:22:46.496Z,1.33
2023-12-30T02:25:13.178Z,1.33
2023-12-30T02:27:39.784Z,1.90
2023-12-30T02:30:06.852Z,1.30
2023-12-30T02:32:33.440Z,1.48
2023-12-30T02:35:00.050Z,1.40
2023-12-30T02:37:26.712Z,1.60
2023-12-30T02:39:53.374Z,1.00
2023-12-30T02:42:19.959Z,1.50
2023-12-30T02:44:46.522Z,1.30
2023-12-30T02:47:13.208Z,1.42
2023-12-30T02:49:43.625Z,1.50
2023-12-30T02:52:10.499Z,1.40
2023-12-30T02:54:37.135Z,1.58
2023-12-30T02:57:04.381Z,1.85
2023-12-30T02:59:31.802Z,1.20
2023-12-30T03:01:58.389Z,1.20
2023-12-30T03:08:05.737Z,1.98
2023-12-30T03:10:32.302Z,1.85
2023-12-30T03:12:59.062Z,1.25
2023-12-30T03:15:25.629Z,2.03
2023-12-30T03:17:52.339Z,1.67
2023-12-30T03:20:19.227Z,1.80
2023-12-30T03:22:45.798Z,1.38
2023-12-30T03:25:12.408Z,1.80
2023-12-30T03:27:38.961Z,1.38
2023-12-30T03:30:06.898Z,1.50
2023-12-30T03:32:33.681Z,1.50
2023-12-30T03:35:00.318Z,1.55
2023-12-30T03:37:26.974Z,1.35
2023-12-30T03:39:53.696Z,1.40
2023-12-30T03:42:20.309Z,2.05
2023-12-30T03:44:46.838Z,1.17
2023-12-30T03:47:13.680Z,1.23
2023-12-30T03:49:40.276Z,1.05
2023-12-30T03:52:07.025Z,1.20
2023-12-30T03:54:33.685Z,1.10
2023-12-30T03:57:00.214Z,1.15
2023-12-30T03:59:26.787Z,1.50
2023-12-30T04:01:53.409Z,1.20
2023-12-30T04:04:20.158Z,1.27
2023-12-30T04:06:46.755Z,1.58
2023-12-30T04:09:13.499Z,1.38
2023-12-30T04:11:40.098Z,1.73
2023-12-30T04:14:06.739Z,2.15
2023-12-30T04:16:33.371Z,2.13
2023-12-30T04:19:00.101Z,1.65
2023-12-30T04:21:26.804Z,2.22
2023-12-30T04:23:53.473Z,1.20
2023-12-30T04:26:20.129Z,1.50
2023-12-30T04:28:47.817Z,1.50
2023-12-30T04:31:14.504Z,1.23
2023-12-30T04:33:41.184Z,1.63
2023-12-30T04:36:08.244Z,1.30
2023-12-30T04:38:35.137Z,1.63
2023-12-30T04:41:01.719Z,2.03
2023-12-30T04:43:28.328Z,1.08
2023-12-30T04:45:54.938Z,1.20
2023-12-30T04:48:21.688Z,1.50
2023-12-30T04:50:48.358Z,1.02
2023-12-30T04:53:14.937Z,1.00
2023-12-30T04:55:42.527Z,0.90
2023-12-30T04:58:09.163Z,1.63
2023-12-30T05:00:36.081Z,1.08
2023-12-30T05:03:03.246Z,1.90
2023-12-30T05:05:30.020Z,1.73
2023-12-30T05:07:56.616Z,1.48
2023-12-30T05:10:23.286Z,1.13
2023-12-30T05:12:50.959Z,1.77
2023-12-30T05:15:17.856Z,1.65
2023-12-30T05:17:45.355Z,1.48
2023-12-30T05:20:13.629Z,1.50
2023-12-30T05:22:41.587Z,1.58
2023-12-30T05:25:08.287Z,1.73
2023-12-30T05:27:34.918Z,1.58
2023-12-30T05:30:01.485Z,1.83
2023-12-30T05:32:28.106Z,2.15
2023-12-30T05:34:54.782Z,1.05
2023-12-30T05:37:21.383Z,1.00
2023-12-30T05:39:48.037Z,1.35
2023-12-30T05:42:14.568Z,1.45
2023-12-30T05:44:41.161Z,1.88
2023-12-30T05:47:07.717Z,1.17
2023-12-30T05:49:36.728Z,1.50
2023-12-30T05:52:03.585Z,1.42
2023-12-30T05:54:30.302Z,1.23
2023-12-30T05:56:56.928Z,1.52
2023-12-30T05:59:23.547Z,0.95
2023-12-30T06:01:50.160Z,1.23
2023-12-30T06:04:17.160Z,1.85
2023-12-30T06:06:44.432Z,1.50
2023-12-30T06:09:11.125Z,1.60
2023-12-30T06:11:40.113Z,1.33
2023-12-30T06:14:06.706Z,1.65
2023-12-30T06:16:33.408Z,0.93
2023-12-30T06:19:00.131Z,1.40
2023-12-30T06:21:26.950Z,1.25
2023-12-30T06:23:53.550Z,1.10
2023-12-30T06:26:20.115Z,1.10
2023-12-30T06:28:46.802Z,1.30
2023-12-30T06:31:14.056Z,1.08
2023-12-30T06:33:41.431Z,1.33
2023-12-30T06:36:08.811Z,1.20
2023-12-30T06:38:36.551Z,1.42
2023-12-30T06:41:06.967Z,1.15
2023-12-30T06:43:33.546Z,1.45
2023-12-30T06:46:04.012Z,1.25
2023-12-30T06:48:30.656Z,1.15
2023-12-30T06:50:58.134Z,1.55
2023-12-30T06:53:24.703Z,1.45
2023-12-30T06:55:51.268Z,1.02
2023-12-30T06:58:17.986Z,1.58
2023-12-30T07:00:44.587Z,1.40
2023-12-30T07:03:12.342Z,1.38
2023-12-30T07:05:39.076Z,1.67
2023-12-30T07:08:06.106Z,1.15
2023-12-30T07:10:32.794Z,1.40
2023-12-30T07:12:59.662Z,1.33
2023-12-30T07:15:26.632Z,1.10
2023-12-30T07:17:53.302Z,1.38
2023-12-30T07:20:20.321Z,1.48
2023-12-30T07:22:46.841Z,1.27
2023-12-30T07:25:14.100Z,1.30
2023-12-30T07:27:40.699Z,1.30
2023-12-30T07:30:07.807Z,1.48
2023-12-30T07:32:34.589Z,1.45
2023-12-30T07:35:01.462Z,1.88
2023-12-30T07:37:28.957Z,1.48
2023-12-30T07:39:55.926Z,1.83
2023-12-30T07:42:23.695Z,1.58
2023-12-30T07:44:51.620Z,1.88
2023-12-30T07:47:18.267Z,1.75
2023-12-30T07:49:44.936Z,2.50
2023-12-30T07:52:11.858Z,1.30
2023-12-30T07:54:38.432Z,1.38
2023-12-30T07:57:05.255Z,1.20
2023-12-30T07:59:31.842Z,1.58
2023-12-30T08:01:58.632Z,1.90
2023-12-30T08:04:25.830Z,1.88
2023-12-30T08:06:52.585Z,2.20
2023-12-30T08:09:19.110Z,1.95
2023-12-30T08:11:54.819Z,1.55
2023-12-30T08:14:28.454Z,1.23
2023-12-30T08:16:55.031Z,1.10
2023-12-30T08:19:21.655Z,1.92
2023-12-30T08:21:48.266Z,1.80
2023-12-30T08:24:17.766Z,1.48
2023-12-30T08:26:44.614Z,1.73
2023-12-30T08:29:11.359Z,1.40
2023-12-30T08:31:38.184Z,1.35
2023-12-30T08:34:05.045Z,1.73
2023-12-30T08:36:31.715Z,1.42
2023-12-30T08:38:58.304Z,1.92
2023-12-30T08:41:29.001Z,1.85
2023-12-30T08:43:57.770Z,1.67
2023-12-30T08:46:24.589Z,2.05
2023-12-30T08:48:51.339Z,2.10
2023-12-30T08:51:18.053Z,1.65
2023-12-30T08:53:44.638Z,2.38
2023-12-30T08:56:11.259Z,1.85
2023-12-30T08:58:38.104Z,1.85
2023-12-30T09:01:04.930Z,2.17
2023-12-30T09:03:31.600Z,2.60
2023-12-30T09:05:58.267Z,2.50
2023-12-30T09:08:24.842Z,2.15
2023-12-30T09:10:51.395Z,2.28
2023-12-30T09:13:18.221Z,1.83
2023-12-30T09:15:44.879Z,1.92
2023-12-30T09:18:14.834Z,1.58
2023-12-30T09:20:42.066Z,2.63
2023-12-30T09:23:08.628Z,1.50
2023-12-30T09:25:35.550Z,2.28
2023-12-30T09:28:02.229Z,2.08
2023-12-30T09:30:29.305Z,2.05
2023-12-30T09:32:55.963Z,3.33
2023-12-30T09:35:22.731Z,2.05
2023-12-30T09:37:49.696Z,2.35
2023-12-30T09:40:16.343Z,3.58
2023-12-30T09:42:48.318Z,2.67
2023-12-30T09:46:06.121Z,3.50
2023-12-30T09:48:52.755Z,3.20
2023-12-30T09:51:19.530Z,3.85
2023-12-30T09:53:46.174Z,3.88
2023-12-30T09:56:13.778Z,3.30
2023-12-30T09:58:41.400Z,3.40
2023-12-30T10:01:08.353Z,3.50
2023-12-30T10:03:35.607Z,4.70
2023-12-30T10:06:05.481Z,3.85
2023-12-30T10:08:32.107Z,3.92
2023-12-30T10:10:58.820Z,4.72
2023-12-30T10:13:28.349Z,3.40
2023-12-30T10:15:58.812Z,5.13
2023-12-30T10:18:26.004Z,4.20
2023-12-30T10:20:53.075Z,4.13
2023-12-30T10:23:19.633Z,3.97
2023-12-30T10:25:47.055Z,4.63
2023-12-30T10:28:14.108Z,4.53
2023-12-30T10:30:40.964Z,4.82
2023-12-30T10:33:15.443Z,4.22
2023-12-30T10:35:43.598Z,4.00
2023-12-30T10:38:11.384Z,5.30
2023-12-30T10:40:39.575Z,3.83
2023-12-30T10:43:07.176Z,3.50
2023-12-30T10:45:34.269Z,3.20
2023-12-30T10:48:02.038Z,3.22
2023-12-30T10:50:29.149Z,3.95
2023-12-30T10:53:07.007Z,3.30
2023-12-30T10:55:35.116Z,4.10
2023-12-30T10:58:18.398Z,4.43
2023-12-30T11:00:52.900Z,4.43
2023-12-30T11:03:20.975Z,3.58
2023-12-30T11:06:08.386Z,2.90
2023-12-30T11:08:36.072Z,3.58
2023-12-30T11:11:05.154Z,3.47
2023-12-30T11:13:36.183Z,4.15
2023-12-30T11:16:16.637Z,5.07
2023-12-30T11:18:52.075Z,2.70
2023-12-30T11:21:35.003Z,2.20
2023-12-30T11:24:03.028Z,2.35
2023-12-30T11:26:30.534Z,2.40
2023-12-30T11:29:02.086Z,2.70
2023-12-30T11:31:33.364Z,2.30
2023-12-30T11:34:01.017Z,2.72
2023-12-30T11:36:29.274Z,3.90
2023-12-30T11:38:58.684Z,2.67
2023-12-30T11:41:26.741Z,3.35
2023-12-30T11:43:55.932Z,2.47
2023-12-30T11:46:22.858Z,4.28
2023-12-30T11:48:49.751Z,3.38
2023-12-30T11:51:27.508Z,3.22
2023-12-30T11:53:54.610Z,3.20
2023-12-30T11:56:25.400Z,2.47
2023-12-30T11:58:52.920Z,3.03
2023-12-30T12:01:20.257Z,2.38
2023-12-30T12:03:46.898Z,3.00
2023-12-30T12:06:14.973Z,3.10
2023-12-30T12:08:42.686Z,3.20
2023-12-30T12:11:10.249Z,3.47
2023-12-30T12:13:36.909Z,2.78
2023-12-30T12:16:05.530Z,2.80
2023-12-30T12:18:33.016Z,2.80
2023-12-30T12:21:04.339Z,2.30
2023-12-30T12:23:32.262Z,2.60
2023-12-30T12:25:59.994Z,2.15
2023-12-30T12:28:26.606Z,2.10
2023-12-30T12:30:53.368Z,1.80
2023-12-30T12:33:20.639Z,1.70
2023-12-30T12:35:47.460Z,2.25
2023-12-30T12:38:14.346Z,2.17
2023-12-30T12:40:40.955Z,2.03
2023-12-30T12:43:07.787Z,1.65
2023-12-30T12:45:34.455Z,2.13
2023-12-30T12:48:01.211Z,2.03
2023-12-30T12:50:27.995Z,2.22
2023-12-30T12:52:54.579Z,2.13
2023-12-30T12:55:21.234Z,2.03
2023-12-30T12:57:47.809Z,2.23
2023-12-30T13:00:14.910Z,1.70
2023-12-30T13:02:41.538Z,2.05
2023-12-30T13:08:53.083Z,1.73
2023-12-30T13:11:27.932Z,1.63
2023-12-30T13:13:55.904Z,2.00
2023-12-30T13:16:22.768Z,1.77
2023-12-30T13:18:49.639Z,1.73
2023-12-30T13:21:16.478Z,1.92
2023-12-30T13:23:43.085Z,1.77
2023-12-30T13:26:09.746Z,1.60
2023-12-30T13:28:36.675Z,1.73
2023-12-30T13:31:03.464Z,1.90
2023-12-30T13:33:30.231Z,1.67
2023-12-30T13:35:57.485Z,1.63
2023-12-30T13:38:25.176Z,1.92
2023-12-30T13:40:54.596Z,1.30
2023-12-30T13:43:21.943Z,1.20
2023-12-30T13:45:49.701Z,1.20
2023-12-30T13:48:22.485Z,1.60
2023-12-30T13:50:56.261Z,1.17
2023-12-30T13:53:25.572Z,1.88
2023-12-30T13:55:54.425Z,2.15
2023-12-30T13:58:21.308Z,1.63
2023-12-30T14:00:48.693Z,1.37
2023-12-30T14:03:16.703Z,1.30
2023-12-30T14:05:47.113Z,1.83
2023-12-30T14:08:32.700Z,2.13
2023-12-30T14:11:06.651Z,1.55
2023-12-30T14:13:33.376Z,2.10
2023-12-30T14:16:00.171Z,1.27
2023-12-30T14:18:27.069Z,2.38
2023-12-30T14:20:53.734Z,1.35
2023-12-30T14:23:20.264Z,2.05
2023-12-30T14:25:47.013Z,1.23
2023-12-30T14:28:13.732Z,1.40
2023-12-30T14:30:40.611Z,1.55
2023-12-30T14:33:07.651Z,1.77
2023-12-30T14:35:34.584Z,1.75
2023-12-30T14:38:02.727Z,1.40
2023-12-30T14:40:29.868Z,2.10
2023-12-30T14:42:56.718Z,1.52
2023-12-30T14:45:23.324Z,2.35
2023-12-30T14:47:50.414Z,1.40
2023-12-30T14:50:17.071Z,1.70
2023-12-30T14:52:44.407Z,1.85
2023-12-30T14:55:12.381Z,1.50
2023-12-30T14:57:42.727Z,1.45
2023-12-30T15:00:16.408Z,1.30
2023-12-30T15:02:45.087Z,1.30
2023-12-30T15:05:14.846Z,1.50
2023-12-30T15:07:43.500Z,1.05
2023-12-30T15:10:12.057Z,1.25
2023-12-30T15:12:39.520Z,1.60
2023-12-30T15:15:08.112Z,1.60
2023-12-30T15:17:34.905Z,1.13
2023-12-30T15:20:01.939Z,1.35
2023-12-30T15:22:30.739Z,1.50
2023-12-30T15:24:58.179Z,1.50
2023-12-30T15:27:25.005Z,1.73
2023-12-30T15:29:51.569Z,1.80
2023-12-30T15:32:18.289Z,1.60
2023-12-30T15:34:45.361Z,1.40
2023-12-30T15:37:15.004Z,1.40
2023-12-30T15:39:41.777Z,2.37
2023-12-30T15:42:08.557Z,1.90
2023-12-30T15:44:38.332Z,0.88
2023-12-30T15:47:08.311Z,1.35
2023-12-30T15:49:35.384Z,1.33
2023-12-30T15:52:02.373Z,1.40
2023-12-30T15:54:28.984Z,1.35
2023-12-30T15:56:55.605Z,1.70
2023-12-30T15:59:22.200Z,1.50
2023-12-30T16:01:49.044Z,1.08
2023-12-30T16:04:15.693Z,1.50
2023-12-30T16:06:42.549Z,1.30
2023-12-30T16:09:09.129Z,1.60
2023-12-30T16:11:36.767Z,1.60
2023-12-30T16:14:03.406Z,1.48
2023-12-30T16:16:30.081Z,1.30
2023-12-30T16:18:56.680Z,1.40
2023-12-30T16:21:23.376Z,1.90
2023-12-30T16:23:49.961Z,1.67
2023-12-30T16:26:17.120Z,1.13
2023-12-30T16:28:44.777Z,1.80
2023-12-30T16:31:11.670Z,1.05
2023-12-30T16:33:41.693Z,1.35
2023-12-30T16:36:09.797Z,1.60
2023-12-30T16:38:36.969Z,1.30
2023-12-30T16:41:03.918Z,1.80
2023-12-30T16:43:33.328Z,1.10
2023-12-30T16:46:00.421Z,1.70
2023-12-30T16:48:27.293Z,1.20
2023-12-30T16:50:53.988Z,1.23
2023-12-30T16:53:20.757Z,1.50
2023-12-30T16:55:48.437Z,3.33
2023-12-30T16:58:15.279Z,3.28
2023-12-30T17:00:41.884Z,3.38
2023-12-30T17:03:08.613Z,1.30
2023-12-30T17:05:35.175Z,1.20
2023-12-30T17:08:01.737Z,1.60
2023-12-30T17:10:28.316Z,1.80
2023-12-30T17:12:54.868Z,1.75
2023-12-30T17:15:21.432Z,1.83
2023-12-30T17:17:48.140Z,1.50
2023-12-30T17:20:16.929Z,1.20
2023-12-30T17:22:43.815Z,1.55
2023-12-30T17:25:10.543Z,1.40
2023-12-30T17:27:37.918Z,1.50
2023-12-30T17:30:05.107Z,1.40
2023-12-30T17:32:31.736Z,2.00
2023-12-30T17:34:58.269Z,1.50
2023-12-30T17:37:25.411Z,1.40
2023-12-30T17:39:52.292Z,1.88
2023-12-30T17:42:18.875Z,2.17
2023-12-30T17:44:45.763Z,2.08
2023-12-30T17:47:12.377Z,1.65
2023-12-30T17:49:38.896Z,1.90
2023-12-30T17:52:05.780Z,1.98
2023-12-30T17:54:32.886Z,2.27
2023-12-30T17:56:59.564Z,1.95
2023-12-30T17:59:26.202Z,1.77
2023-12-30T18:01:52.826Z,2.45
2023-12-30T18:04:19.433Z,4.03
2023-12-30T18:06:46.002Z,3.10
2023-12-30T18:09:14.128Z,3.45
2023-12-30T18:11:40.737Z,3.30
2023-12-30T18:14:12.140Z,3.15
2023-12-30T18:16:41.657Z,2.70
2023-12-30T18:19:08.480Z,3.87
2023-12-30T18:21:35.195Z,2.45
2023-12-30T18:24:01.726Z,4.70
2023-12-30T18:26:28.415Z,2.80
2023-12-30T18:28:55.002Z,2.60
2023-12-30T18:31:21.604Z,3.30
2023-12-30T18:33:48.356Z,1.90
2023-12-30T18:36:15.048Z,2.33
2023-12-30T18:38:41.565Z,2.78
2023-12-30T18:41:08.294Z,2.70
2023-12-30T18:43:35.986Z,3.00
2023-12-30T18:46:02.766Z,3.60
2023-12-30T18:48:29.969Z,3.35
2023-12-30T18:50:56.643Z,4.10
2023-12-30T18:53:23.281Z,4.40
2023-12-30T18:55:49.907Z,3.67
2023-12-30T18:58:16.688Z,3.47
2023-12-30T19:00:43.365Z,2.83
2023-12-30T19:03:11.441Z,2.75
2023-12-30T19:05:38.299Z,3.22
2023-12-30T19:08:05.253Z,2.97
2023-12-30T19:10:31.892Z,2.92
2023-12-30T19:12:58.675Z,2.92
2023-12-30T19:15:25.518Z,1.80
2023-12-30T19:17:52.281Z,2.70
2023-12-30T19:20:19.332Z,2.80
2023-12-30T19:22:45.904Z,2.95
2023-12-30T19:25:12.648Z,2.30
2023-12-30T19:27:39.712Z,3.05
2023-12-30T19:30:06.949Z,2.78
2023-12-30T19:32:33.500Z,2.73
2023-12-30T19:35:01.034Z,3.83
2023-12-30T19:37:28.092Z,2.63
2023-12-30T19:39:54.814Z,3.20
2023-12-30T19:42:21.646Z,2.55
2023-12-30T19:44:48.262Z,3.10
2023-12-30T19:47:14.818Z,2.55
2023-12-30T19:49:41.422Z,2.65
2023-12-30T19:52:09.581Z,2.83
2023-12-30T19:54:38.683Z,2.55
2023-12-30T19:57:05.521Z,3.13
2023-12-30T19:59:32.400Z,2.78
2023-12-30T20:01:58.996Z,2.17
2023-12-30T20:04:25.927Z,2.70
2023-12-30T20:06:53.572Z,3.15
2023-12-30T20:09:21.027Z,3.70
2023-12-30T20:11:49.302Z,2.55
2023-12-30T20:14:16.410Z,3.65
2023-12-30T20:16:43.398Z,2.85
2023-12-30T20:19:10.448Z,2.97
2023-12-30T20:21:38.590Z,2.90
2023-12-30T20:24:05.638Z,5.82
2023-12-30T20:26:32.215Z,2.45
2023-12-30T20:28:58.782Z,2.40
2023-12-30T20:31:25.481Z,2.72
2023-12-30T20:33:52.110Z,3.53
2023-12-30T20:36:22.662Z,2.83
2023-12-30T20:38:49.447Z,2.20
2023-12-30T20:41:17.152Z,3.03
2023-12-30T20:43:43.784Z,2.25
2023-12-30T20:46:10.941Z,2.20
2023-12-30T20:48:38.087Z,2.42
2023-12-30T20:51:05.098Z,2.53
2023-12-30T20:53:32.688Z,2.30
2023-12-30T20:55:59.287Z,2.50
2023-12-30T20:58:26.262Z,2.17
2023-12-30T21:00:53.237Z,2.25
2023-12-30T21:03:19.950Z,2.22
2023-12-30T21:05:46.655Z,1.92
2023-12-30T21:08:13.901Z,1.85
2023-12-30T21:10:40.617Z,1.87
2023-12-30T21:13:07.367Z,1.35
2023-12-30T21:15:34.034Z,2.00
2023-12-30T21:18:00.753Z,2.05
2023-12-30T21:20:27.372Z,2.53
2023-12-30T21:22:56.162Z,1.90
2023-12-30T21:25:26.995Z,2.10
2023-12-30T21:27:54.317Z,1.80
2023-12-30T21:30:22.935Z,1.90
2023-12-30T21:32:50.770Z,2.00
2023-12-30T21:35:19.481Z,2.00
2023-12-30T21:37:48.282Z,2.35
2023-12-30T21:40:16.714Z,1.67
2023-12-30T21:42:43.287Z,1.90
2023-12-30T21:45:11.081Z,1.92
2023-12-30T21:47:37.830Z,1.53
2023-12-30T21:50:05.142Z,1.65
2023-12-30T21:52:34.214Z,1.80
2023-12-30T21:55:02.292Z,1.92
2023-12-30T21:57:28.874Z,1.65
2023-12-30T21:59:55.380Z,1.80
2023-12-30T22:02:21.963Z,1.60
2023-12-30T22:04:50.154Z,1.73
2023-12-30T22:07:16.908Z,1.85
2023-12-30T22:09:43.539Z,2.08
2023-12-30T22:12:10.053Z,2.73
2023-12-30T22:14:37.383Z,2.17
2023-12-30T22:17:04.154Z,2.05
2023-12-30T22:19:30.878Z,2.00
2023-12-30T22:21:57.469Z,1.95
2023-12-30T22:24:24.079Z,1.77
2023-12-30T22:26:50.710Z,2.45
2023-12-30T22:29:17.272Z,3.25
2023-12-30T22:31:44.088Z,1.85
2023-12-30T22:34:10.796Z,1.70
2023-12-30T22:36:37.921Z,3.37
2023-12-30T22:39:04.535Z,1.60
2023-12-30T22:41:31.235Z,1.20
2023-12-30T22:43:57.873Z,1.33
2023-12-30T22:46:24.517Z,1.10
2023-12-30T22:48:51.190Z,1.20
2023-12-30T22:51:17.833Z,1.23
2023-12-30T22:53:44.920Z,0.90
2023-12-30T22:56:11.544Z,1.38
2023-12-30T22:58:38.766Z,1.17
2023-12-30T23:01:06.251Z,1.50
2023-12-30T23:03:33.229Z,2.03
2023-12-30T23:06:00.010Z,1.38
2023-12-30T23:08:26.645Z,1.70
2023-12-30T23:10:53.323Z,1.55
2023-12-30T23:13:20.368Z,1.60
2023-12-30T23:15:48.182Z,1.35
2023-12-30T23:18:15.245Z,1.23
2023-12-30T23:20:41.879Z,1.20
2023-12-30T23:23:08.473Z,1.40
2023-12-30T23:25:35.081Z,1.13
2023-12-30T23:28:01.683Z,1.38
2023-12-30T23:30:28.325Z,1.48
2023-12-30T23:32:55.012Z,1.80
2023-12-30T23:35:21.682Z,1.27
2023-12-30T23:37:48.298Z,2.17
2023-12-30T23:40:15.196Z,1.95
2023-12-30T23:42:41.831Z,1.73
2023-12-30T23:45:08.884Z,1.67
2023-12-30T23:47:35.636Z,1.90
2023-12-30T23:50:02.213Z,1.83
2023-12-30T23:52:28.931Z,1.90
2023-12-30T23:54:55.620Z,1.70
2023-12-30T23:57:22.142Z,1.63
2023-12-30T23:59:48.780Z,1.42
